Time;durP1;ratioP1;P1;durP2;ratioP2;P2;SDS_P1;SDS_P2;PMS_P1;PMS_P2;Temp;Humidity;BMP_temperature;BMP_pressure;BME280_temperature;BME280_humidity;BME280_pressure;Samples;Min_cycle;Max_cycle;Signal;HPM_P1;HPM_P2
2023/05/02 00:00:48;;;;;;;47.72;25.58;;;12.10;99.90;;;;;;5069464;28;20033;-59
2023/05/02 00:03:15;;;;;;;59.53;26.45;;;12.10;99.90;;;;;;5066319;28;20032;-59
2023/05/02 00:05:41;;;;;;;47.30;26.33;;;12.10;99.90;;;;;;5069509;28;20047;-60
2023/05/02 00:08:06;;;;;;;55.22;28.90;;;12.00;99.90;;;;;;5064034;28;20028;-64
2023/05/02 00:10:32;;;;;;;56.63;26.25;;;12.00;99.90;;;;;;5068565;28;20079;-62
2023/05/02 00:12:58;;;;;;;54.22;26.65;;;12.00;99.90;;;;;;5070328;28;20028;-61
2023/05/02 00:15:23;;;;;;;50.08;26.77;;;11.90;99.90;;;;;;5073793;28;20039;-60
2023/05/02 00:17:49;;;;;;;57.28;27.98;;;11.90;99.90;;;;;;5067369;28;21637;-62
2023/05/02 00:20:14;;;;;;;56.15;25.75;;;11.80;99.90;;;;;;5071743;28;20033;-58
2023/05/02 00:22:40;;;;;;;62.55;28.48;;;11.80;99.90;;;;;;5071000;28;20090;-59
2023/05/02 00:25:06;;;;;;;62.53;30.27;;;11.70;99.90;;;;;;5070266;28;20021;-56
2023/05/02 00:27:32;;;;;;;58.10;26.85;;;11.70;99.90;;;;;;5072559;28;20098;-66
2023/05/02 00:29:59;;;;;;;66.07;29.80;;;11.60;99.90;;;;;;5072163;28;20017;-63
2023/05/02 00:32:24;;;;;;;51.08;26.08;;;11.60;99.90;;;;;;5069634;28;20096;-62
2023/05/02 00:34:50;;;;;;;61.97;29.58;;;11.60;99.90;;;;;;5069419;28;20609;-62
2023/05/02 00:37:15;;;;;;;58.80;27.63;;;11.60;99.90;;;;;;5066717;28;20507;-60
2023/05/02 00:39:41;;;;;;;59.85;28.85;;;11.50;99.90;;;;;;5069955;28;20044;-59
2023/05/02 00:42:06;;;;;;;61.15;27.65;;;11.50;99.90;;;;;;5071146;28;20392;-58
2023/05/02 00:44:32;;;;;;;64.72;29.20;;;11.50;99.90;;;;;;5073549;28;20446;-62
2023/05/02 00:46:59;;;;;;;65.57;30.55;;;11.40;99.90;;;;;;5070811;28;20438;-59
2023/05/02 00:49:25;;;;;;;66.75;30.05;;;11.40;99.90;;;;;;5067927;28;20415;-61
2023/05/02 00:51:52;;;;;;;64.13;29.75;;;11.30;99.90;;;;;;5071092;28;20040;-59
2023/05/02 00:54:17;;;;;;;68.43;30.67;;;11.30;99.90;;;;;;5068318;28;20024;-62
2023/05/02 00:56:43;;;;;;;70.55;30.80;;;11.30;99.90;;;;;;5066862;28;20029;-59
2023/05/02 00:59:10;;;;;;;66.15;30.52;;;11.20;99.90;;;;;;5071784;28;20081;-60
2023/05/02 01:01:54;;;;;;;65.75;31.27;;;11.30;99.90;;;;;;5072177;28;20388;-62
2023/05/02 01:05:01;;;;;;;64.88;30.30;;;11.30;99.90;;;;;;5070670;28;20032;-59
2023/05/02 01:07:54;;;;;;;67.55;28.73;;;11.30;99.90;;;;;;5054970;28;20033;-58
2023/05/02 01:11:05;;;;;;;70.20;29.77;;;11.30;99.90;;;;;;5067563;28;20024;-59
2023/05/02 01:13:32;;;;;;;72.95;30.85;;;11.30;99.90;;;;;;5066478;28;20039;-58
2023/05/02 01:16:01;;;;;;;66.57;31.50;;;11.30;99.90;;;;;;5069479;28;20032;-59
2023/05/02 01:18:32;;;;;;;64.47;29.42;;;11.30;99.90;;;;;;5077417;28;20458;-62
2023/05/02 01:21:03;;;;;;;64.65;29.88;;;11.30;99.90;;;;;;5063049;28;20024;-62
2023/05/02 01:23:44;;;;;;;72.50;30.48;;;11.30;99.90;;;;;;5071431;28;21812;-60
2023/05/02 01:26:33;;;;;;;69.10;30.55;;;11.30;99.90;;;;;;5072797;28;20035;-60
2023/05/02 01:29:04;;;;;;;72.75;33.38;;;11.20;99.90;;;;;;5071661;28;20024;-61
2023/05/02 01:31:46;;;;;;;72.28;30.77;;;11.20;99.90;;;;;;5069781;28;20025;-63
2023/05/02 01:34:12;;;;;;;79.55;34.00;;;11.20;99.90;;;;;;5073598;28;20166;-64
2023/05/02 01:36:43;;;;;;;69.05;32.35;;;11.20;99.90;;;;;;5072244;28;20493;-62
2023/05/02 01:39:12;;;;;;;79.80;33.95;;;11.20;99.90;;;;;;5068318;28;20445;-63
2023/05/02 01:41:39;;;;;;;81.97;34.47;;;11.10;99.90;;;;;;5070198;28;20040;-62
2023/05/02 01:44:06;;;;;;;83.40;34.47;;;11.10;99.90;;;;;;5071319;28;20033;-60
2023/05/02 01:46:37;;;;;;;85.35;36.17;;;11.10;99.90;;;;;;5070859;28;20044;-64
2023/05/02 01:49:05;;;;;;;89.93;36.17;;;11.10;99.90;;;;;;5067839;28;20028;-63
2023/05/02 01:51:34;;;;;;;86.07;35.38;;;11.00;99.90;;;;;;5067047;28;20028;-62
2023/05/02 01:54:03;;;;;;;86.18;36.63;;;11.00;99.90;;;;;;5067913;28;20048;-62
2023/05/02 01:56:31;;;;;;;94.28;37.55;;;10.90;99.90;;;;;;5074528;28;20432;-60
2023/05/02 01:58:58;;;;;;;95.20;37.25;;;10.90;99.90;;;;;;5068066;28;20032;-63
2023/05/02 02:01:26;;;;;;;92.57;36.90;;;10.80;99.90;;;;;;5068435;28;20129;-62
2023/05/02 02:03:55;;;;;;;91.65;36.85;;;10.80;99.90;;;;;;5065564;28;20404;-60
2023/05/02 02:06:21;;;;;;;101.85;37.17;;;10.80;99.90;;;;;;5071265;28;20029;-61
2023/05/02 02:08:46;;;;;;;102.50;38.42;;;10.80;99.90;;;;;;5067560;28;20040;-62
2023/05/02 02:11:20;;;;;;;100.45;37.25;;;10.80;99.90;;;;;;5070724;28;20017;-62
2023/05/02 02:13:56;;;;;;;89.35;37.80;;;10.70;99.90;;;;;;5072528;28;20445;-62
2023/05/02 02:16:27;;;;;;;99.38;37.63;;;10.80;99.90;;;;;;5069306;28;20036;-63
2023/05/02 02:18:56;;;;;;;93.13;37.58;;;10.80;99.90;;;;;;5068516;28;20063;-61
2023/05/02 02:21:24;;;;;;;99.80;37.67;;;10.80;99.90;;;;;;5072091;28;20082;-60
2023/05/02 02:23:54;;;;;;;91.82;37.25;;;10.80;99.90;;;;;;5068949;28;20139;-57
2023/05/02 02:26:22;;;;;;;89.60;35.88;;;10.80;99.90;;;;;;5069878;28;20029;-61
2023/05/02 02:28:47;;;;;;;100.60;37.30;;;10.80;99.90;;;;;;5065705;28;20108;-61
2023/05/02 02:31:13;;;;;;;96.10;39.55;;;10.80;99.90;;;;;;5069830;28;20564;-62
2023/05/02 02:33:39;;;;;;;98.43;37.53;;;10.90;99.90;;;;;;5068598;28;20090;-65
2023/05/02 02:36:52;;;;;;;95.95;36.88;;;10.90;99.90;;;;;;5069253;28;20074;-62
2023/05/02 02:39:38;;;;;;;102.95;36.03;;;10.90;99.90;;;;;;5061672;28;20046;-62
2023/05/02 02:42:22;;;;;;;95.13;36.60;;;10.90;99.90;;;;;;5068306;28;20044;-64
2023/05/02 02:44:53;;;;;;;94.63;35.05;;;10.90;99.90;;;;;;5069593;28;20038;-62
2023/05/02 02:47:40;;;;;;;94.45;34.30;;;10.90;99.90;;;;;;5067565;28;20047;-63
2023/05/02 02:50:30;;;;;;;84.97;34.53;;;10.90;99.90;;;;;;5066436;28;20563;-63
2023/05/02 02:53:03;;;;;;;88.22;33.50;;;10.90;99.90;;;;;;5066975;28;21422;-58
2023/05/02 02:55:46;;;;;;;86.32;32.35;;;10.90;99.90;;;;;;5068611;28;20032;-60
2023/05/02 02:58:41;;;;;;;78.90;31.35;;;10.80;99.90;;;;;;5066317;28;20038;-59
2023/05/02 03:01:13;;;;;;;77.95;29.83;;;10.80;99.90;;;;;;5043569;28;20048;-65
2023/05/02 03:03:41;;;;;;;79.95;31.52;;;10.90;99.90;;;;;;5065751;28;20032;-59
2023/05/02 03:06:07;;;;;;;81.18;32.28;;;10.90;99.90;;;;;;5066305;28;20028;-58
2023/05/02 03:08:43;;;;;;;93.38;35.67;;;10.90;99.90;;;;;;5069073;28;20038;-65
2023/05/02 03:11:09;;;;;;;91.75;33.20;;;10.90;99.90;;;;;;5069592;28;20479;-61
2023/05/02 03:13:37;;;;;;;85.45;33.33;;;10.90;99.90;;;;;;5069408;28;20036;-62
2023/05/02 03:16:26;;;;;;;83.63;33.45;;;10.90;99.90;;;;;;5073691;28;20023;-61
2023/05/02 03:18:51;;;;;;;83.22;32.83;;;10.90;99.90;;;;;;5068856;28;20090;-60
2023/05/02 03:21:17;;;;;;;86.65;31.02;;;10.90;99.90;;;;;;5070577;28;20058;-62
2023/05/02 03:23:42;;;;;;;79.05;32.80;;;10.90;99.90;;;;;;5072975;28;20102;-60
2023/05/02 03:26:08;;;;;;;85.75;30.58;;;10.90;99.90;;;;;;5071092;28;20038;-63
2023/05/02 03:28:33;;;;;;;83.50;33.80;;;11.00;99.90;;;;;;5068392;28;20518;-60
2023/05/02 03:30:59;;;;;;;80.53;28.92;;;11.00;99.90;;;;;;5065040;28;20035;-61
2023/05/02 03:33:24;;;;;;;89.25;30.88;;;11.00;99.90;;;;;;5070549;28;20025;-62
2023/05/02 03:35:50;;;;;;;84.00;30.98;;;11.00;99.90;;;;;;5069621;28;20059;-59
2023/05/02 03:38:15;;;;;;;79.63;30.55;;;11.00;99.90;;;;;;5068996;28;20040;-59
2023/05/02 03:40:41;;;;;;;86.30;30.63;;;11.00;99.90;;;;;;5063124;28;20032;-61
2023/05/02 03:43:06;;;;;;;79.53;30.10;;;11.00;99.90;;;;;;5069199;28;20025;-59
2023/05/02 03:45:32;;;;;;;84.47;29.63;;;11.00;99.90;;;;;;5068095;28;20024;-61
2023/05/02 03:47:57;;;;;;;82.63;31.88;;;11.00;99.90;;;;;;5067305;28;20036;-63
2023/05/02 03:50:23;;;;;;;82.43;34.78;;;11.10;99.90;;;;;;5069860;28;20119;-62
2023/05/02 03:52:49;;;;;;;79.75;33.20;;;11.00;99.90;;;;;;5064899;28;20040;-62
2023/05/02 03:55:14;;;;;;;85.32;33.42;;;11.00;99.90;;;;;;5068927;28;20133;-61
2023/05/02 03:57:40;;;;;;;88.15;33.25;;;11.00;99.90;;;;;;5071001;28;20028;-61
2023/05/02 04:00:06;;;;;;;86.75;32.30;;;11.00;99.90;;;;;;5070144;28;20028;-54
2023/05/02 04:02:32;;;;;;;101.03;37.28;;;11.00;99.90;;;;;;5070016;28;20028;-62
2023/05/02 04:04:58;;;;;;;92.07;34.50;;;11.00;99.90;;;;;;5066234;28;20408;-61
2023/05/02 04:07:24;;;;;;;93.72;34.10;;;11.00;99.90;;;;;;5070612;28;20096;-64
2023/05/02 04:09:50;;;;;;;84.47;32.60;;;11.00;99.90;;;;;;5069423;28;20024;-60
2023/05/02 04:12:16;;;;;;;92.13;32.88;;;11.00;99.90;;;;;;5069228;28;20021;-62
2023/05/02 04:14:41;;;;;;;84.05;34.13;;;11.00;99.90;;;;;;5068973;28;20096;-59
2023/05/02 04:17:07;;;;;;;89.35;32.70;;;11.00;99.90;;;;;;5067883;28;20028;-63
2023/05/02 04:19:33;;;;;;;88.43;34.05;;;11.00;99.90;;;;;;5061249;28;20047;-61
2023/05/02 04:21:59;;;;;;;89.68;31.95;;;11.00;99.90;;;;;;5066534;28;20036;-64
2023/05/02 04:24:24;;;;;;;81.20;32.15;;;11.00;99.90;;;;;;5067278;28;20033;-61
2023/05/02 04:26:50;;;;;;;73.40;30.67;;;11.00;99.90;;;;;;5061782;28;20033;-59
2023/05/02 04:29:16;;;;;;;91.32;32.53;;;11.00;99.90;;;;;;5067533;28;20021;-63
2023/05/02 04:31:41;;;;;;;79.20;31.52;;;11.00;99.90;;;;;;5067270;28;20028;-60
2023/05/02 04:34:07;;;;;;;88.57;32.00;;;11.00;99.90;;;;;;5061639;28;20021;-57
2023/05/02 04:36:33;;;;;;;92.43;32.75;;;11.00;99.90;;;;;;5063898;28;20024;-56
2023/05/02 04:38:59;;;;;;;83.80;34.13;;;11.00;99.90;;;;;;5062570;28;20126;-54
2023/05/02 04:41:24;;;;;;;91.43;31.65;;;11.00;99.90;;;;;;5061359;28;20100;-59
2023/05/02 04:43:50;;;;;;;93.47;32.70;;;11.00;99.90;;;;;;5061168;28;20032;-58
2023/05/02 04:46:17;;;;;;;88.85;33.40;;;11.00;99.90;;;;;;5067251;28;20040;-60
2023/05/02 04:48:43;;;;;;;83.53;32.53;;;11.10;99.90;;;;;;5063656;28;20055;-59
2023/05/02 04:51:09;;;;;;;88.75;33.42;;;11.00;99.90;;;;;;5070142;28;20539;-58
2023/05/02 04:53:36;;;;;;;88.47;33.55;;;11.00;99.90;;;;;;5074576;28;20047;-59
2023/05/02 04:56:01;;;;;;;79.70;32.17;;;11.00;99.90;;;;;;5070370;28;20051;-56
2023/05/02 04:58:27;;;;;;;85.40;33.90;;;11.00;99.90;;;;;;5070794;28;20477;-59
2023/05/02 05:00:53;;;;;;;87.57;33.80;;;11.00;99.90;;;;;;5067104;28;20029;-58
2023/05/02 05:03:19;;;;;;;80.32;32.60;;;11.00;99.90;;;;;;5069766;28;20126;-60
2023/05/02 05:05:45;;;;;;;82.47;29.77;;;11.00;99.90;;;;;;5070769;28;20120;-61
2023/05/02 05:08:10;;;;;;;76.25;30.17;;;11.00;99.90;;;;;;5070790;28;20119;-59
2023/05/02 05:10:36;;;;;;;80.82;30.50;;;11.10;99.90;;;;;;5071485;28;20142;-59
2023/05/02 05:13:03;;;;;;;82.13;30.33;;;11.10;99.90;;;;;;5068223;28;20028;-59
2023/05/02 05:15:28;;;;;;;71.93;28.02;;;11.10;99.90;;;;;;5066101;28;20453;-58
2023/05/02 05:17:54;;;;;;;75.10;28.55;;;11.20;99.90;;;;;;5069589;28;20025;-58
2023/05/02 05:20:19;;;;;;;75.53;29.42;;;11.20;99.90;;;;;;5070840;28;20059;-61
2023/05/02 05:22:45;;;;;;;86.93;32.70;;;11.20;99.90;;;;;;5070544;28;20031;-60
2023/05/02 05:25:11;;;;;;;82.13;31.98;;;11.20;99.90;;;;;;5074305;28;20008;-58
2023/05/02 05:27:37;;;;;;;90.60;32.15;;;11.30;99.90;;;;;;5068124;28;20055;-59
2023/05/02 05:30:03;;;;;;;75.93;31.58;;;11.30;99.90;;;;;;5069497;28;20033;-59
2023/05/02 05:32:29;;;;;;;85.65;33.10;;;11.30;99.90;;;;;;5075510;28;20032;-59
2023/05/02 05:34:55;;;;;;;86.90;30.58;;;11.30;99.90;;;;;;5067563;28;20044;-59
2023/05/02 05:37:20;;;;;;;81.57;30.63;;;11.30;99.90;;;;;;5071053;28;20029;-61
2023/05/02 05:39:46;;;;;;;76.85;31.00;;;11.30;99.90;;;;;;5066961;28;20043;-59
2023/05/02 05:42:12;;;;;;;75.47;32.53;;;11.40;99.90;;;;;;5069342;28;20060;-60
2023/05/02 05:44:38;;;;;;;74.30;29.00;;;11.30;99.90;;;;;;5074810;28;20065;-59
2023/05/02 05:47:04;;;;;;;69.93;28.77;;;11.30;99.90;;;;;;5067830;28;20453;-58
2023/05/02 05:49:30;;;;;;;79.15;27.63;;;11.30;99.90;;;;;;5072111;28;20073;-61
2023/05/02 05:51:55;;;;;;;72.05;26.10;;;11.20;99.90;;;;;;5071863;28;20031;-61
2023/05/02 05:54:21;;;;;;;66.38;26.20;;;11.30;99.90;;;;;;5072794;28;20100;-56
2023/05/02 05:56:47;;;;;;;72.60;27.25;;;11.30;99.90;;;;;;5071968;28;20032;-62
2023/05/02 05:59:12;;;;;;;66.20;24.40;;;11.30;99.90;;;;;;5070643;28;20547;-59
2023/05/02 06:01:38;;;;;;;58.22;22.73;;;11.30;99.90;;;;;;5071667;28;20028;-57
2023/05/02 06:04:05;;;;;;;62.78;23.13;;;11.40;99.90;;;;;;5072975;28;20031;-60
2023/05/02 06:06:31;;;;;;;52.83;21.80;;;11.40;99.90;;;;;;5070699;28;20028;-56
2023/05/02 06:08:57;;;;;;;55.78;22.10;;;11.40;99.90;;;;;;5066960;28;20029;-62
2023/05/02 06:11:23;;;;;;;55.95;21.40;;;11.40;99.90;;;;;;5069267;28;20020;-61
2023/05/02 06:13:50;;;;;;;56.28;20.92;;;11.40;99.90;;;;;;5067534;28;20020;-62
2023/05/02 06:16:17;;;;;;;49.30;19.80;;;11.40;99.90;;;;;;5070474;28;20024;-60
2023/05/02 06:18:42;;;;;;;53.97;16.80;;;11.30;99.90;;;;;;5074191;28;20089;-61
2023/05/02 06:21:08;;;;;;;49.78;19.42;;;11.30;99.90;;;;;;5069207;28;20032;-61
2023/05/02 06:23:34;;;;;;;50.75;18.83;;;11.20;99.90;;;;;;5067768;28;20021;-61
2023/05/02 06:26:01;;;;;;;54.55;20.75;;;11.20;99.90;;;;;;5068666;28;20030;-60
2023/05/02 06:28:27;;;;;;;55.33;19.77;;;11.20;99.90;;;;;;5068580;28;20028;-60
2023/05/02 06:31:00;;;;;;;49.40;18.73;;;11.20;99.90;;;;;;5070687;28;20047;-59
2023/05/02 06:33:27;;;;;;;54.35;19.17;;;11.20;99.90;;;;;;5069599;28;20090;-53
2023/05/02 06:35:53;;;;;;;57.83;20.20;;;11.10;99.90;;;;;;5069515;28;20025;-56
2023/05/02 06:38:19;;;;;;;47.60;18.80;;;11.10;99.90;;;;;;5068896;28;20508;-56
2023/05/02 06:40:44;;;;;;;61.00;20.80;;;11.10;99.90;;;;;;5070085;28;20032;-58
2023/05/02 06:43:11;;;;;;;54.25;19.73;;;11.10;99.90;;;;;;5068191;28;20040;-56
2023/05/02 06:45:37;;;;;;;57.92;20.75;;;11.10;99.90;;;;;;5065758;28;20496;-52
2023/05/02 06:48:02;;;;;;;59.05;21.95;;;11.00;99.90;;;;;;5070687;28;20037;-58
2023/05/02 06:50:28;;;;;;;58.72;20.92;;;11.00;99.90;;;;;;5061841;28;20028;-58
2023/05/02 06:52:54;;;;;;;53.50;19.95;;;11.00;99.90;;;;;;5070122;28;20031;-58
2023/05/02 06:55:20;;;;;;;51.45;19.00;;;11.10;99.90;;;;;;5069910;28;20016;-58
2023/05/02 06:57:47;;;;;;;63.92;20.30;;;11.10;99.90;;;;;;5068297;28;20820;-53
2023/05/02 07:00:15;;;;;;;49.58;19.40;;;11.20;99.90;;;;;;5069349;28;20021;-57
2023/05/02 07:02:40;;;;;;;48.33;18.13;;;11.20;99.90;;;;;;5067943;28;20036;-57
2023/05/02 07:05:06;;;;;;;52.65;20.48;;;11.20;99.90;;;;;;5069618;28;20028;-54
2023/05/02 07:07:31;;;;;;;43.47;16.98;;;11.20;99.90;;;;;;5068291;28;20028;-59
2023/05/02 07:09:57;;;;;;;47.92;19.42;;;11.20;99.90;;;;;;5060954;28;20103;-60
2023/05/02 07:12:22;;;;;;;43.00;16.88;;;11.20;99.90;;;;;;5069837;28;20024;-58
2023/05/02 07:14:48;;;;;;;43.90;18.25;;;11.20;99.90;;;;;;5069122;28;20025;-57
2023/05/02 07:17:14;;;;;;;37.60;16.27;;;11.30;99.90;;;;;;5068180;28;20040;-58
2023/05/02 07:19:40;;;;;;;49.20;18.92;;;11.20;99.90;;;;;;5065369;28;20020;-58
2023/05/02 07:22:06;;;;;;;42.67;17.30;;;11.30;99.90;;;;;;5068250;28;20043;-60
2023/05/02 07:24:31;;;;;;;44.50;18.27;;;11.20;99.90;;;;;;5069989;28;20060;-54
2023/05/02 07:26:57;;;;;;;38.97;15.63;;;11.20;99.90;;;;;;5069698;28;20063;-58
2023/05/02 07:29:22;;;;;;;38.38;15.88;;;11.10;99.90;;;;;;5061039;28;20391;-55
2023/05/02 07:31:48;;;;;;;28.40;14.25;;;11.10;99.90;;;;;;5068787;28;20436;-64
2023/05/02 07:34:14;;;;;;;38.55;14.18;;;11.10;99.90;;;;;;5069482;28;20028;-59
2023/05/02 07:36:39;;;;;;;38.42;14.85;;;11.10;99.90;;;;;;5070249;28;20020;-60
2023/05/02 07:39:05;;;;;;;33.47;13.93;;;11.20;99.90;;;;;;5068803;28;20036;-60
2023/05/02 07:41:30;;;;;;;34.35;14.65;;;11.20;99.90;;;;;;5069134;28;20036;-62
2023/05/02 07:43:56;;;;;;;37.28;13.85;;;11.30;99.90;;;;;;5068404;28;20078;-61
2023/05/02 07:46:22;;;;;;;27.77;13.07;;;11.30;99.90;;;;;;5068582;28;20012;-60
2023/05/02 07:48:48;;;;;;;33.47;12.82;;;11.40;99.90;;;;;;5062909;28;20033;-61
2023/05/02 07:51:14;;;;;;;32.97;12.93;;;11.50;99.90;;;;;;5070249;28;20025;-61
2023/05/02 07:53:39;;;;;;;27.25;13.25;;;11.40;99.90;;;;;;5068672;28;20056;-60
2023/05/02 07:56:06;;;;;;;34.05;13.63;;;11.40;99.90;;;;;;5072611;28;20555;-60
2023/05/02 07:58:31;;;;;;;33.05;12.25;;;11.40;99.90;;;;;;5068905;28;20021;-62
2023/05/02 08:00:57;;;;;;;38.45;13.73;;;11.40;99.90;;;;;;5072928;28;20074;-60
2023/05/02 08:03:23;;;;;;;38.58;14.85;;;11.40;99.90;;;;;;5071231;28;20036;-61
2023/05/02 08:05:48;;;;;;;37.13;14.93;;;11.50;99.90;;;;;;5070097;28;20613;-62
2023/05/02 08:08:14;;;;;;;33.92;14.23;;;11.40;99.90;;;;;;5068386;28;20035;-61
2023/05/02 08:10:39;;;;;;;28.50;13.48;;;11.50;99.90;;;;;;5069158;28;20511;-59
2023/05/02 08:13:05;;;;;;;30.88;12.93;;;11.40;99.90;;;;;;5068421;28;20036;-62
2023/05/02 08:15:30;;;;;;;30.88;14.00;;;11.50;99.90;;;;;;5068887;28;20025;-61
2023/05/02 08:17:56;;;;;;;41.83;17.85;;;11.40;99.90;;;;;;5071040;28;20499;-62
2023/05/02 08:20:22;;;;;;;44.38;17.58;;;11.50;99.90;;;;;;5069507;28;20020;-62
2023/05/02 08:22:47;;;;;;;37.20;16.30;;;11.50;99.90;;;;;;5069256;28;20020;-61
2023/05/02 08:25:13;;;;;;;36.75;16.33;;;11.50;99.90;;;;;;5075238;28;20035;-60
2023/05/02 08:27:38;;;;;;;36.38;14.77;;;11.60;99.90;;;;;;5071579;28;20027;-62
2023/05/02 08:30:05;;;;;;;35.17;13.25;;;11.70;99.90;;;;;;5073854;28;20059;-61
2023/05/02 08:32:31;;;;;;;26.63;10.50;;;11.80;99.90;;;;;;5075595;28;20030;-58
2023/05/02 08:34:57;;;;;;;23.10;10.43;;;11.80;99.90;;;;;;5072810;28;20032;-61
2023/05/02 08:37:22;;;;;;;24.45;9.82;;;11.80;99.90;;;;;;5073385;28;20021;-62
2023/05/02 08:39:48;;;;;;;16.77;8.77;;;11.90;99.90;;;;;;5072012;28;20032;-62
2023/05/02 08:42:14;;;;;;;27.30;7.70;;;12.00;99.90;;;;;;5073177;28;20399;-60
2023/05/02 08:44:39;;;;;;;23.70;7.75;;;12.10;99.90;;;;;;5073082;28;20488;-61
2023/05/02 08:47:07;;;;;;;13.52;6.95;;;12.00;99.90;;;;;;5072789;28;20403;-62
2023/05/02 08:49:34;;;;;;;19.85;6.70;;;12.00;99.90;;;;;;5073435;28;20029;-58
2023/05/02 08:52:01;;;;;;;15.13;4.75;;;12.00;99.90;;;;;;5068653;28;20024;-61
2023/05/02 08:54:26;;;;;;;8.77;4.18;;;11.90;99.90;;;;;;5073364;28;20023;-60
2023/05/02 08:56:55;;;;;;;10.40;2.95;;;11.80;99.90;;;;;;5076303;28;20036;-59
2023/05/02 08:59:22;;;;;;;11.85;3.60;;;11.80;99.90;;;;;;5073064;28;20036;-62
2023/05/02 09:01:51;;;;;;;14.43;3.58;;;11.80;99.90;;;;;;5072679;28;20713;-62
2023/05/02 09:04:22;;;;;;;9.50;4.10;;;11.80;99.90;;;;;;5072224;28;20052;-61
2023/05/02 09:06:48;;;;;;;12.40;3.65;;;11.80;99.90;;;;;;5073116;28;20115;-62
2023/05/02 09:09:13;;;;;;;6.55;3.15;;;11.80;99.90;;;;;;5072004;28;20104;-61
2023/05/02 09:11:40;;;;;;;13.43;4.32;;;11.90;99.90;;;;;;5072957;28;20036;-61
2023/05/02 09:14:15;;;;;;;8.77;3.35;;;12.00;99.90;;;;;;5072430;28;20484;-62
2023/05/02 09:16:41;;;;;;;9.98;3.25;;;12.00;99.90;;;;;;5075287;28;20033;-62
2023/05/02 09:19:06;;;;;;;8.77;3.30;;;12.10;99.90;;;;;;5074035;28;20036;-63
2023/05/02 09:21:39;;;;;;;12.35;3.40;;;12.20;99.90;;;;;;5087152;28;20487;-61
2023/05/02 09:24:17;;;;;;;22.40;10.63;;;12.30;99.90;;;;;;5071239;28;20554;-61
2023/05/02 09:26:53;;;;;;;29.88;11.43;;;12.20;99.90;;;;;;5073009;28;20032;-60
2023/05/02 09:29:19;;;;;;;22.80;10.55;;;12.00;99.90;;;;;;5067589;28;20040;-61
2023/05/02 09:31:45;;;;;;;23.65;10.70;;;11.90;99.90;;;;;;5071211;28;20028;-58
2023/05/02 09:34:13;;;;;;;23.23;9.40;;;11.90;99.90;;;;;;5068697;28;20048;-61
2023/05/02 09:36:50;;;;;;;27.58;11.45;;;11.80;99.90;;;;;;5070351;28;20444;-62
2023/05/02 09:39:19;;;;;;;29.67;13.35;;;11.80;99.90;;;;;;5072070;28;20045;-61
2023/05/02 09:41:46;;;;;;;24.40;11.18;;;11.80;99.90;;;;;;5072608;28;20063;-60
2023/05/02 09:44:14;;;;;;;19.88;9.93;;;11.80;99.90;;;;;;5072542;28;20020;-61
2023/05/02 09:46:43;;;;;;;22.65;11.65;;;11.90;99.90;;;;;;5071783;28;20020;-62
2023/05/02 09:49:09;;;;;;;27.35;9.02;;;12.00;99.90;;;;;;5072616;28;20029;-61
2023/05/02 09:51:35;;;;;;;23.60;12.13;;;12.10;99.90;;;;;;5077537;28;20024;-63
2023/05/02 09:54:00;;;;;;;26.15;10.23;;;12.00;99.90;;;;;;5070874;28;20031;-62
2023/05/02 09:56:26;;;;;;;22.27;10.30;;;12.00;99.90;;;;;;5071968;28;20453;-60
2023/05/02 09:59:12;;;;;;;18.65;10.05;;;11.90;99.90;;;;;;5070841;28;20024;-61
2023/05/02 10:01:39;;;;;;;19.30;9.05;;;11.80;99.90;;;;;;5069854;28;20492;-61
2023/05/02 10:04:08;;;;;;;29.30;11.13;;;11.80;99.90;;;;;;5071975;28;20044;-61
2023/05/02 10:06:33;;;;;;;23.10;11.98;;;11.80;99.90;;;;;;5073000;28;20017;-62
2023/05/02 10:08:59;;;;;;;32.83;12.15;;;11.90;99.90;;;;;;5070695;28;20032;-62
2023/05/02 10:11:26;;;;;;;22.42;12.70;;;11.80;99.90;;;;;;5071822;28;20028;-61
2023/05/02 10:13:51;;;;;;;24.33;12.05;;;11.80;99.90;;;;;;5071461;28;20024;-62
2023/05/02 10:16:27;;;;;;;25.50;11.38;;;11.90;99.90;;;;;;5071634;28;20019;-62
2023/05/02 10:19:02;;;;;;;24.33;10.90;;;12.00;99.90;;;;;;5075601;28;20041;-62
2023/05/02 10:21:28;;;;;;;19.10;10.20;;;12.20;99.90;;;;;;5072373;28;20454;-62
2023/05/02 10:23:54;;;;;;;19.38;8.30;;;12.40;99.90;;;;;;5063593;28;20028;-60
2023/05/02 10:26:22;;;;;;;20.17;8.00;;;12.40;99.90;;;;;;5070763;28;20020;-61
2023/05/02 10:28:49;;;;;;;20.15;8.57;;;12.50;99.90;;;;;;5070255;28;20086;-61
2023/05/02 10:31:17;;;;;;;21.80;9.63;;;12.60;99.90;;;;;;5070113;28;20020;-62
2023/05/02 10:33:43;;;;;;;23.02;9.65;;;12.60;99.90;;;;;;5071440;28;20139;-61
2023/05/02 10:36:11;;;;;;;20.63;8.18;;;12.60;99.90;;;;;;5070698;28;20547;-59
2023/05/02 10:38:38;;;;;;;25.13;9.68;;;12.70;99.90;;;;;;5070304;28;20060;-60
2023/05/02 10:41:14;;;;;;;15.65;9.40;;;12.70;99.90;;;;;;5071261;28;20510;-62
2023/05/02 10:43:44;;;;;;;19.70;8.10;;;12.80;99.90;;;;;;5069563;28;20033;-62
2023/05/02 10:46:29;;;;;;;16.77;5.68;;;12.70;99.90;;;;;;5072351;28;20024;-62
2023/05/02 10:49:09;;;;;;;10.77;6.40;;;12.50;99.90;;;;;;5069629;28;20056;-62
2023/05/02 10:51:36;;;;;;;15.00;6.18;;;12.40;99.90;;;;;;5066807;28;20056;-62
2023/05/02 10:54:17;;;;;;;13.13;5.05;;;12.30;99.90;;;;;;5067454;28;20108;-63
2023/05/02 10:57:04;;;;;;;13.75;5.15;;;12.20;99.90;;;;;;5068742;28;20028;-61
2023/05/02 10:59:39;;;;;;;13.85;4.97;;;12.40;99.90;;;;;;5060281;28;20028;-62
2023/05/02 11:02:26;;;;;;;14.07;5.82;;;12.40;99.90;;;;;;5062005;28;20399;-61
2023/05/02 11:05:06;;;;;;;12.45;5.90;;;12.40;99.90;;;;;;5068937;28;20039;-61
2023/05/02 11:07:33;;;;;;;15.77;5.82;;;12.30;99.90;;;;;;5067252;28;20115;-62
2023/05/02 11:10:14;;;;;;;14.98;6.60;;;12.40;99.90;;;;;;5066390;28;20129;-62
2023/05/02 11:12:59;;;;;;;20.88;7.05;;;12.40;99.90;;;;;;5069096;28;20032;-60
2023/05/02 11:15:28;;;;;;;21.38;9.45;;;12.40;99.90;;;;;;5068228;28;20574;-63
2023/05/02 11:18:07;;;;;;;18.85;8.85;;;12.40;99.90;;;;;;5067068;28;20028;-63
2023/05/02 11:20:34;;;;;;;16.67;8.68;;;12.50;99.90;;;;;;5070717;28;20020;-60
2023/05/02 11:23:29;;;;;;;17.45;8.45;;;12.50;99.90;;;;;;5069181;28;20031;-61
2023/05/02 11:25:56;;;;;;;14.70;7.35;;;12.50;99.90;;;;;;5062644;28;20036;-63
2023/05/02 11:28:37;;;;;;;21.70;7.05;;;12.60;99.90;;;;;;5066122;28;20522;-62
2023/05/02 11:31:29;;;;;;;13.38;7.00;;;12.50;99.90;;;;;;5068489;28;20037;-63
2023/05/02 11:33:59;;;;;;;12.13;7.55;;;12.70;99.90;;;;;;5069342;28;20062;-62
2023/05/02 11:36:34;;;;;;;15.50;6.93;;;12.80;99.90;;;;;;5061363;28;20500;-61
2023/05/02 11:39:16;;;;;;;18.73;6.55;;;13.00;99.90;;;;;;5058967;28;20101;-58
2023/05/02 11:41:42;;;;;;;20.45;6.40;;;13.20;99.90;;;;;;5065726;28;20027;-59
2023/05/02 11:44:08;;;;;;;15.07;6.32;;;13.20;99.90;;;;;;5069400;28;20029;-63
2023/05/02 11:46:38;;;;;;;14.45;5.78;;;13.20;99.90;;;;;;5071966;28;20062;-60
2023/05/02 11:49:05;;;;;;;22.65;6.38;;;13.20;99.90;;;;;;5069923;28;20029;-63
2023/05/02 11:51:31;;;;;;;14.05;5.20;;;13.10;99.90;;;;;;5067312;28;20028;-62
2023/05/02 11:53:56;;;;;;;11.35;4.88;;;13.10;99.90;;;;;;5064155;28;20021;-63
2023/05/02 11:56:25;;;;;;;17.52;5.32;;;13.00;99.90;;;;;;5067454;28;20056;-63
2023/05/02 11:59:02;;;;;;;15.82;6.50;;;13.10;99.90;;;;;;5066395;28;20032;-61
2023/05/02 12:01:27;;;;;;;13.10;6.47;;;13.20;99.90;;;;;;5069577;28;20032;-62
2023/05/02 12:04:07;;;;;;;17.02;6.43;;;13.20;99.90;;;;;;5068617;28;20024;-59
2023/05/02 12:06:32;;;;;;;15.00;6.40;;;13.20;99.90;;;;;;5069996;28;20033;-59
2023/05/02 12:09:09;;;;;;;17.38;5.82;;;13.30;99.90;;;;;;5072216;28;20652;-62
2023/05/02 12:11:37;;;;;;;15.23;5.80;;;13.40;99.90;;;;;;5096702;28;20036;-62
2023/05/02 12:14:03;;;;;;;10.18;5.38;;;13.40;99.90;;;;;;5076489;28;20065;-62
2023/05/02 12:16:28;;;;;;;10.20;4.55;;;13.50;99.90;;;;;;5071661;28;20426;-60
2023/05/02 12:18:56;;;;;;;13.07;5.00;;;13.50;99.90;;;;;;5066806;28;20069;-62
2023/05/02 12:21:22;;;;;;;7.22;4.28;;;13.70;99.90;;;;;;5072456;28;20157;-61
2023/05/02 12:23:48;;;;;;;10.70;4.10;;;14.00;99.90;;;;;;5071658;28;20024;-60
2023/05/02 12:26:23;;;;;;;6.53;3.20;;;14.50;99.90;;;;;;5071386;28;20109;-62
2023/05/02 12:28:51;;;;;;;13.15;3.70;;;15.10;99.90;;;;;;5067670;28;20070;-63
2023/05/02 12:31:17;;;;;;;10.20;3.97;;;15.30;99.90;;;;;;5066726;28;20027;-63
2023/05/02 12:33:42;;;;;;;12.65;5.07;;;15.40;99.90;;;;;;5065747;28;20017;-62
2023/05/02 12:36:09;;;;;;;13.05;4.03;;;15.20;99.90;;;;;;5067130;28;20478;-63
2023/05/02 12:38:35;;;;;;;13.43;5.90;;;14.90;99.90;;;;;;5069443;28;20029;-63